Waldron Lake, Indiana
Current Conditions -  °F | °C
As of 5:53 AM on Friday 31 Oct 2014 (Local Time) from KGSH Reporting Station
Light Rain Light Rain  
Wind Chill:   Ceiling: 4200
Heat Index:   Visibility: 10mi
Dew Point:   Wind: 8mph
Humidity: 82%   Direction: 280°W
Pressure: 29.94"   Gusts: NA
Location:  41.4818°N, 85.481°W
Report Text: KGSH 310953Z AUTO 28007KT 10SM -RA FEW028 BKN042 OVC049 07/04 A2994 RMK AO2 RAB25 SLP142 P0000 T00670039
Loading
Personal Weather Stations






























Interactive Weather Map
Tropical Storm Tracking
New forecast layout! Learn more

10-Day Weather Forecast

Advertisements
Track Severe Weather on mobile